sensor_id;sensor_type;location;lat;lon;timestamp;P1;durP1;ratioP1;P2;durP2;ratioP2
35797;SDS011;21918;49.940;7.774;2023-07-02T00:00:03;2.22;;;1.48;;
35797;SDS011;21918;49.940;7.774;2023-07-02T00:02:31;2.38;;;1.38;;
35797;SDS011;21918;49.940;7.774;2023-07-02T00:04:58;2.75;;;1.33;;
35797;SDS011;21918;49.940;7.774;2023-07-02T00:07:26;1.58;;;1.23;;
35797;SDS011;21918;49.940;7.774;2023-07-02T00:09:53;1.50;;;1.35;;
35797;SDS011;21918;49.940;7.774;2023-07-02T00:12:21;1.70;;;1.40;;
35797;SDS011;21918;49.940;7.774;2023-07-02T00:14:47;1.67;;;1.23;;
35797;SDS011;21918;49.940;7.774;2023-07-02T00:17:19;2.35;;;1.40;;
35797;SDS011;21918;49.940;7.774;2023-07-02T00:19:46;3.53;;;1.48;;
35797;SDS011;21918;49.940;7.774;2023-07-02T00:22:16;3.10;;;1.58;;
35797;SDS011;21918;49.940;7.774;2023-07-02T00:24:43;0.98;;;0.98;;
35797;SDS011;21918;49.940;7.774;2023-07-02T00:27:09;3.72;;;1.45;;
35797;SDS011;21918;49.940;7.774;2023-07-02T00:29:37;1.83;;;1.15;;
35797;SDS011;21918;49.940;7.774;2023-07-02T00:32:05;1.52;;;1.33;;
35797;SDS011;21918;49.940;7.774;2023-07-02T00:34:32;3.15;;;1.50;;
35797;SDS011;21918;49.940;7.774;2023-07-02T00:36:58;1.77;;;1.10;;
35797;SDS011;21918;49.940;7.774;2023-07-02T00:39:25;2.10;;;1.48;;
35797;SDS011;21918;49.940;7.774;2023-07-02T00:41:51;1.15;;;1.05;;
35797;SDS011;21918;49.940;7.774;2023-07-02T00:44:18;3.17;;;1.88;;
35797;SDS011;21918;49.940;7.774;2023-07-02T00:46:46;2.55;;;1.48;;
35797;SDS011;21918;49.940;7.774;2023-07-02T00:49:14;1.77;;;1.50;;
35797;SDS011;21918;49.940;7.774;2023-07-02T00:51:46;2.58;;;1.23;;
35797;SDS011;21918;49.940;7.774;2023-07-02T00:54:13;1.23;;;0.93;;
35797;SDS011;21918;49.940;7.774;2023-07-02T00:56:42;1.50;;;1.40;;
35797;SDS011;21918;49.940;7.774;2023-07-02T00:59:11;3.08;;;1.83;;
35797;SDS011;21918;49.940;7.774;2023-07-02T01:01:38;1.38;;;1.20;;
35797;SDS011;21918;49.940;7.774;2023-07-02T01:04:08;1.60;;;1.50;;
35797;SDS011;21918;49.940;7.774;2023-07-02T01:06:37;2.50;;;2.30;;
35797;SDS011;21918;49.940;7.774;2023-07-02T01:09:08;3.92;;;1.75;;
35797;SDS011;21918;49.940;7.774;2023-07-02T01:11:38;1.92;;;1.83;;
35797;SDS011;21918;49.940;7.774;2023-07-02T01:14:08;1.60;;;1.50;;
35797;SDS011;21918;49.940;7.774;2023-07-02T01:16:37;2.10;;;1.40;;
35797;SDS011;21918;49.940;7.774;2023-07-02T01:19:11;2.03;;;1.85;;
35797;SDS011;21918;49.940;7.774;2023-07-02T01:21:42;5.55;;;1.73;;
35797;SDS011;21918;49.940;7.774;2023-07-02T01:24:11;3.22;;;1.90;;
35797;SDS011;21918;49.940;7.774;2023-07-02T01:26:39;3.35;;;1.92;;
35797;SDS011;21918;49.940;7.774;2023-07-02T01:29:13;4.72;;;2.22;;
35797;SDS011;21918;49.940;7.774;2023-07-02T01:31:43;3.08;;;1.73;;
35797;SDS011;21918;49.940;7.774;2023-07-02T01:34:11;5.07;;;2.10;;
35797;SDS011;21918;49.940;7.774;2023-07-02T01:36:38;3.53;;;2.60;;
35797;SDS011;21918;49.940;7.774;2023-07-02T01:39:11;2.03;;;1.83;;
35797;SDS011;21918;49.940;7.774;2023-07-02T01:41:41;5.10;;;2.70;;
35797;SDS011;21918;49.940;7.774;2023-07-02T01:44:09;5.88;;;2.60;;
35797;SDS011;21918;49.940;7.774;2023-07-02T01:46:37;2.83;;;2.58;;
35797;SDS011;21918;49.940;7.774;2023-07-02T01:49:07;3.58;;;2.53;;
35797;SDS011;21918;49.940;7.774;2023-07-02T01:51:34;2.83;;;2.30;;
35797;SDS011;21918;49.940;7.774;2023-07-02T01:54:01;2.50;;;2.10;;
35797;SDS011;21918;49.940;7.774;2023-07-02T01:56:29;3.15;;;2.50;;
35797;SDS011;21918;49.940;7.774;2023-07-02T01:58:55;9.18;;;2.92;;
35797;SDS011;21918;49.940;7.774;2023-07-02T02:01:28;5.82;;;2.65;;
35797;SDS011;21918;49.940;7.774;2023-07-02T02:03:54;4.10;;;2.63;;
35797;SDS011;21918;49.940;7.774;2023-07-02T02:06:21;4.05;;;2.45;;
35797;SDS011;21918;49.940;7.774;2023-07-02T02:08:47;2.83;;;2.35;;
35797;SDS011;21918;49.940;7.774;2023-07-02T02:11:14;1.80;;;1.60;;
35797;SDS011;21918;49.940;7.774;2023-07-02T02:13:49;4.47;;;2.38;;
35797;SDS011;21918;49.940;7.774;2023-07-02T02:16:15;2.67;;;2.22;;
35797;SDS011;21918;49.940;7.774;2023-07-02T02:18:46;2.30;;;1.88;;
35797;SDS011;21918;49.940;7.774;2023-07-02T02:21:17;4.53;;;2.25;;
35797;SDS011;21918;49.940;7.774;2023-07-02T02:23:44;4.40;;;2.17;;
35797;SDS011;21918;49.940;7.774;2023-07-02T02:26:22;3.95;;;2.25;;
35797;SDS011;21918;49.940;7.774;2023-07-02T02:28:51;2.78;;;1.80;;
35797;SDS011;21918;49.940;7.774;2023-07-02T02:31:18;5.68;;;2.28;;
35797;SDS011;21918;49.940;7.774;2023-07-02T02:33:45;3.58;;;2.25;;
35797;SDS011;21918;49.940;7.774;2023-07-02T02:36:11;2.75;;;2.38;;
35797;SDS011;21918;49.940;7.774;2023-07-02T02:38:38;2.90;;;2.17;;
35797;SDS011;21918;49.940;7.774;2023-07-02T02:41:07;3.42;;;2.58;;
35797;SDS011;21918;49.940;7.774;2023-07-02T02:43:34;3.80;;;2.30;;
35797;SDS011;21918;49.940;7.774;2023-07-02T02:46:02;2.10;;;1.90;;
35797;SDS011;21918;49.940;7.774;2023-07-02T02:48:28;2.55;;;1.73;;
35797;SDS011;21918;49.940;7.774;2023-07-02T02:50:55;2.83;;;1.98;;
35797;SDS011;21918;49.940;7.774;2023-07-02T02:53:24;2.47;;;2.20;;
35797;SDS011;21918;49.940;7.774;2023-07-02T02:55:53;5.28;;;2.75;;
35797;SDS011;21918;49.940;7.774;2023-07-02T02:58:19;4.53;;;2.95;;
35797;SDS011;21918;49.940;7.774;2023-07-02T03:00:47;3.15;;;2.85;;
35797;SDS011;21918;49.940;7.774;2023-07-02T03:03:15;3.78;;;3.13;;
35797;SDS011;21918;49.940;7.774;2023-07-02T03:05:43;3.47;;;2.70;;
35797;SDS011;21918;49.940;7.774;2023-07-02T03:08:12;5.35;;;2.63;;
35797;SDS011;21918;49.940;7.774;2023-07-02T03:10:39;4.45;;;2.50;;
35797;SDS011;21918;49.940;7.774;2023-07-02T03:13:07;4.18;;;2.78;;
35797;SDS011;21918;49.940;7.774;2023-07-02T03:15:33;2.95;;;2.00;;
35797;SDS011;21918;49.940;7.774;2023-07-02T03:18:00;3.95;;;2.90;;
35797;SDS011;21918;49.940;7.774;2023-07-02T03:20:28;3.53;;;2.80;;
35797;SDS011;21918;49.940;7.774;2023-07-02T03:22:55;3.17;;;2.40;;
35797;SDS011;21918;49.940;7.774;2023-07-02T03:25:21;6.28;;;3.58;;
35797;SDS011;21918;49.940;7.774;2023-07-02T03:27:48;3.08;;;2.63;;
35797;SDS011;21918;49.940;7.774;2023-07-02T03:30:17;5.78;;;3.65;;
35797;SDS011;21918;49.940;7.774;2023-07-02T03:32:43;4.65;;;3.00;;
35797;SDS011;21918;49.940;7.774;2023-07-02T03:35:10;5.40;;;3.47;;
35797;SDS011;21918;49.940;7.774;2023-07-02T03:37:41;7.35;;;3.60;;
35797;SDS011;21918;49.940;7.774;2023-07-02T03:40:09;4.28;;;3.28;;
35797;SDS011;21918;49.940;7.774;2023-07-02T03:42:35;6.35;;;3.55;;
35797;SDS011;21918;49.940;7.774;2023-07-02T03:45:02;4.72;;;2.90;;
35797;SDS011;21918;49.940;7.774;2023-07-02T03:47:29;3.25;;;2.95;;
35797;SDS011;21918;49.940;7.774;2023-07-02T03:49:56;5.85;;;2.97;;
35797;SDS011;21918;49.940;7.774;2023-07-02T03:52:22;4.03;;;3.40;;
35797;SDS011;21918;49.940;7.774;2023-07-02T03:54:50;4.97;;;2.72;;
35797;SDS011;21918;49.940;7.774;2023-07-02T03:57:17;3.75;;;2.80;;
35797;SDS011;21918;49.940;7.774;2023-07-02T03:59:44;7.63;;;2.97;;
35797;SDS011;21918;49.940;7.774;2023-07-02T04:02:11;4.47;;;3.30;;
35797;SDS011;21918;49.940;7.774;2023-07-02T04:04:37;6.38;;;3.65;;
35797;SDS011;21918;49.940;7.774;2023-07-02T04:07:04;6.25;;;2.65;;
35797;SDS011;21918;49.940;7.774;2023-07-02T04:09:31;3.45;;;2.95;;
35797;SDS011;21918;49.940;7.774;2023-07-02T04:11:59;3.17;;;2.45;;
35797;SDS011;21918;49.940;7.774;2023-07-02T04:14:26;6.35;;;3.03;;
35797;SDS011;21918;49.940;7.774;2023-07-02T04:16:53;5.05;;;3.33;;
35797;SDS011;21918;49.940;7.774;2023-07-02T04:19:19;3.78;;;3.10;;
35797;SDS011;21918;49.940;7.774;2023-07-02T04:21:46;4.00;;;3.03;;
35797;SDS011;21918;49.940;7.774;2023-07-02T04:24:14;3.63;;;2.42;;
35797;SDS011;21918;49.940;7.774;2023-07-02T04:26:40;3.75;;;2.92;;
35797;SDS011;21918;49.940;7.774;2023-07-02T04:29:09;4.07;;;3.08;;
35797;SDS011;21918;49.940;7.774;2023-07-02T04:31:38;4.07;;;3.42;;
35797;SDS011;21918;49.940;7.774;2023-07-02T04:34:05;3.25;;;2.63;;
35797;SDS011;21918;49.940;7.774;2023-07-02T04:36:31;3.38;;;2.60;;
35797;SDS011;21918;49.940;7.774;2023-07-02T04:38:58;2.90;;;2.60;;
35797;SDS011;21918;49.940;7.774;2023-07-02T04:41:25;6.32;;;2.85;;
35797;SDS011;21918;49.940;7.774;2023-07-02T04:43:54;5.13;;;3.40;;
35797;SDS011;21918;49.940;7.774;2023-07-02T04:46:25;4.82;;;3.00;;
35797;SDS011;21918;49.940;7.774;2023-07-02T04:48:52;3.88;;;2.75;;
35797;SDS011;21918;49.940;7.774;2023-07-02T04:51:19;4.18;;;3.22;;
35797;SDS011;21918;49.940;7.774;2023-07-02T04:53:46;4.15;;;3.10;;
35797;SDS011;21918;49.940;7.774;2023-07-02T04:56:20;3.22;;;2.70;;
35797;SDS011;21918;49.940;7.774;2023-07-02T04:58:47;3.58;;;2.72;;
35797;SDS011;21918;49.940;7.774;2023-07-02T05:01:13;4.80;;;3.45;;
35797;SDS011;21918;49.940;7.774;2023-07-02T05:03:41;3.72;;;3.08;;
35797;SDS011;21918;49.940;7.774;2023-07-02T05:06:10;5.93;;;2.97;;
35797;SDS011;21918;49.940;7.774;2023-07-02T05:08:38;4.32;;;2.90;;
35797;SDS011;21918;49.940;7.774;2023-07-02T05:11:09;4.38;;;3.17;;
35797;SDS011;21918;49.940;7.774;2023-07-02T05:13:36;5.65;;;3.45;;
35797;SDS011;21918;49.940;7.774;2023-07-02T05:16:08;3.58;;;2.95;;
35797;SDS011;21918;49.940;7.774;2023-07-02T05:18:38;3.38;;;3.08;;
35797;SDS011;21918;49.940;7.774;2023-07-02T05:21:06;3.90;;;3.30;;
35797;SDS011;21918;49.940;7.774;2023-07-02T05:23:35;5.20;;;3.50;;
35797;SDS011;21918;49.940;7.774;2023-07-02T05:26:04;3.72;;;2.80;;
35797;SDS011;21918;49.940;7.774;2023-07-02T05:28:30;5.13;;;3.90;;
35797;SDS011;21918;49.940;7.774;2023-07-02T05:30:57;4.68;;;3.38;;
35797;SDS011;21918;49.940;7.774;2023-07-02T05:33:23;7.72;;;4.25;;
35797;SDS011;21918;49.940;7.774;2023-07-02T05:35:50;4.25;;;3.28;;
35797;SDS011;21918;49.940;7.774;2023-07-02T05:38:21;3.67;;;3.25;;
35797;SDS011;21918;49.940;7.774;2023-07-02T05:40:47;5.50;;;3.20;;
35797;SDS011;21918;49.940;7.774;2023-07-02T05:43:15;7.57;;;3.15;;
35797;SDS011;21918;49.940;7.774;2023-07-02T05:45:44;6.05;;;3.28;;
35797;SDS011;21918;49.940;7.774;2023-07-02T05:48:10;5.50;;;3.92;;
35797;SDS011;21918;49.940;7.774;2023-07-02T05:50:37;6.47;;;4.22;;
35797;SDS011;21918;49.940;7.774;2023-07-02T05:53:04;6.70;;;4.97;;
35797;SDS011;21918;49.940;7.774;2023-07-02T05:55:32;10.15;;;6.40;;
35797;SDS011;21918;49.940;7.774;2023-07-02T05:57:58;10.23;;;7.25;;
35797;SDS011;21918;49.940;7.774;2023-07-02T06:00:28;13.30;;;8.00;;
35797;SDS011;21918;49.940;7.774;2023-07-02T06:02:56;12.43;;;7.93;;
35797;SDS011;21918;49.940;7.774;2023-07-02T06:05:22;16.02;;;8.02;;
35797;SDS011;21918;49.940;7.774;2023-07-02T06:07:49;12.90;;;9.18;;
35797;SDS011;21918;49.940;7.774;2023-07-02T06:10:16;12.27;;;7.55;;
35797;SDS011;21918;49.940;7.774;2023-07-02T06:12:50;13.13;;;8.25;;
35797;SDS011;21918;49.940;7.774;2023-07-02T06:15:17;15.95;;;9.95;;
35797;SDS011;21918;49.940;7.774;2023-07-02T06:17:43;16.23;;;9.18;;
35797;SDS011;21918;49.940;7.774;2023-07-02T06:20:10;15.27;;;10.32;;
35797;SDS011;21918;49.940;7.774;2023-07-02T06:22:37;16.77;;;9.95;;
35797;SDS011;21918;49.940;7.774;2023-07-02T06:25:06;16.58;;;9.70;;
35797;SDS011;21918;49.940;7.774;2023-07-02T06:27:33;15.52;;;8.95;;
35797;SDS011;21918;49.940;7.774;2023-07-02T06:30:01;15.60;;;9.27;;
35797;SDS011;21918;49.940;7.774;2023-07-02T06:32:28;13.90;;;9.88;;
35797;SDS011;21918;49.940;7.774;2023-07-02T06:34:54;16.02;;;10.18;;
35797;SDS011;21918;49.940;7.774;2023-07-02T06:37:21;16.10;;;10.32;;
35797;SDS011;21918;49.940;7.774;2023-07-02T06:39:48;17.05;;;10.93;;
35797;SDS011;21918;49.940;7.774;2023-07-02T06:42:17;17.50;;;10.43;;
35797;SDS011;21918;49.940;7.774;2023-07-02T06:44:44;14.43;;;9.70;;
35797;SDS011;21918;49.940;7.774;2023-07-02T06:47:14;16.33;;;9.52;;
35797;SDS011;21918;49.940;7.774;2023-07-02T06:49:42;15.98;;;9.85;;
35797;SDS011;21918;49.940;7.774;2023-07-02T06:52:08;16.35;;;10.35;;
35797;SDS011;21918;49.940;7.774;2023-07-02T06:54:35;17.73;;;11.45;;
35797;SDS011;21918;49.940;7.774;2023-07-02T06:57:01;15.57;;;9.95;;
35797;SDS011;21918;49.940;7.774;2023-07-02T06:59:28;21.05;;;11.45;;
35797;SDS011;21918;49.940;7.774;2023-07-02T07:01:57;16.30;;;10.35;;
35797;SDS011;21918;49.940;7.774;2023-07-02T07:04:25;16.25;;;9.25;;
35797;SDS011;21918;49.940;7.774;2023-07-02T07:06:53;15.65;;;10.43;;
35797;SDS011;21918;49.940;7.774;2023-07-02T07:09:20;15.90;;;10.10;;
35797;SDS011;21918;49.940;7.774;2023-07-02T07:11:47;14.02;;;9.35;;
35797;SDS011;21918;49.940;7.774;2023-07-02T07:14:13;14.95;;;10.13;;
35797;SDS011;21918;49.940;7.774;2023-07-02T07:16:40;14.70;;;9.70;;
35797;SDS011;21918;49.940;7.774;2023-07-02T07:19:07;17.42;;;10.55;;
35797;SDS011;21918;49.940;7.774;2023-07-02T07:21:38;13.45;;;9.13;;
35797;SDS011;21918;49.940;7.774;2023-07-02T07:24:05;23.20;;;9.75;;
35797;SDS011;21918;49.940;7.774;2023-07-02T07:26:36;18.27;;;9.88;;
35797;SDS011;21918;49.940;7.774;2023-07-02T07:29:08;16.15;;;9.88;;
35797;SDS011;21918;49.940;7.774;2023-07-02T07:31:35;15.27;;;9.80;;
35797;SDS011;21918;49.940;7.774;2023-07-02T07:34:02;15.30;;;10.15;;
35797;SDS011;21918;49.940;7.774;2023-07-02T07:36:28;17.42;;;9.98;;
35797;SDS011;21918;49.940;7.774;2023-07-02T07:38:56;16.75;;;10.57;;
35797;SDS011;21918;49.940;7.774;2023-07-02T07:41:28;14.73;;;9.98;;
35797;SDS011;21918;49.940;7.774;2023-07-02T07:43:57;19.92;;;10.95;;
35797;SDS011;21918;49.940;7.774;2023-07-02T07:46:26;14.43;;;9.85;;
35797;SDS011;21918;49.940;7.774;2023-07-02T07:48:53;15.95;;;10.93;;
35797;SDS011;21918;49.940;7.774;2023-07-02T07:51:22;15.27;;;9.82;;
35797;SDS011;21918;49.940;7.774;2023-07-02T07:53:49;14.02;;;9.45;;
35797;SDS011;21918;49.940;7.774;2023-07-02T07:56:17;16.60;;;9.80;;
35797;SDS011;21918;49.940;7.774;2023-07-02T07:58:45;22.38;;;10.80;;
35797;SDS011;21918;49.940;7.774;2023-07-02T08:01:12;19.83;;;11.20;;
35797;SDS011;21918;49.940;7.774;2023-07-02T08:03:40;14.63;;;10.40;;
35797;SDS011;21918;49.940;7.774;2023-07-02T08:06:07;18.85;;;10.70;;
35797;SDS011;21918;49.940;7.774;2023-07-02T08:08:34;16.33;;;9.80;;
35797;SDS011;21918;49.940;7.774;2023-07-02T08:11:00;21.73;;;12.10;;
35797;SDS011;21918;49.940;7.774;2023-07-02T08:13:28;15.48;;;9.80;;
35797;SDS011;21918;49.940;7.774;2023-07-02T08:15:55;14.52;;;10.23;;
35797;SDS011;21918;49.940;7.774;2023-07-02T08:18:27;18.20;;;10.80;;
35797;SDS011;21918;49.940;7.774;2023-07-02T08:21:01;20.42;;;11.15;;
35797;SDS011;21918;49.940;7.774;2023-07-02T08:23:29;18.52;;;11.55;;
35797;SDS011;21918;49.940;7.774;2023-07-02T08:25:58;16.15;;;10.45;;
35797;SDS011;21918;49.940;7.774;2023-07-02T08:28:29;14.98;;;9.38;;
35797;SDS011;21918;49.940;7.774;2023-07-02T08:30:56;21.08;;;10.88;;
35797;SDS011;21918;49.940;7.774;2023-07-02T08:33:22;17.98;;;10.45;;
35797;SDS011;21918;49.940;7.774;2023-07-02T08:35:51;15.27;;;11.00;;
35797;SDS011;21918;49.940;7.774;2023-07-02T08:38:17;22.65;;;11.57;;
35797;SDS011;21918;49.940;7.774;2023-07-02T08:40:49;17.30;;;10.60;;
35797;SDS011;21918;49.940;7.774;2023-07-02T08:43:15;19.02;;;10.88;;
35797;SDS011;21918;49.940;7.774;2023-07-02T08:45:43;15.65;;;10.55;;
35797;SDS011;21918;49.940;7.774;2023-07-02T08:48:13;16.67;;;11.18;;
35797;SDS011;21918;49.940;7.774;2023-07-02T08:50:43;19.05;;;10.60;;
35797;SDS011;21918;49.940;7.774;2023-07-02T08:53:12;17.92;;;10.57;;
35797;SDS011;21918;49.940;7.774;2023-07-02T08:55:38;15.27;;;10.27;;
35797;SDS011;21918;49.940;7.774;2023-07-02T08:58:07;17.42;;;11.70;;
35797;SDS011;21918;49.940;7.774;2023-07-02T09:03:36;16.00;;;11.95;;
35797;SDS011;21918;49.940;7.774;2023-07-02T09:06:11;18.60;;;11.13;;
35797;SDS011;21918;49.940;7.774;2023-07-02T09:08:43;19.73;;;11.20;;
35797;SDS011;21918;49.940;7.774;2023-07-02T09:11:15;15.57;;;9.70;;
35797;SDS011;21918;49.940;7.774;2023-07-02T09:13:44;12.77;;;9.82;;
35797;SDS011;21918;49.940;7.774;2023-07-02T09:16:23;14.85;;;10.27;;
35797;SDS011;21918;49.940;7.774;2023-07-02T09:19:01;16.13;;;9.75;;
35797;SDS011;21918;49.940;7.774;2023-07-02T09:21:37;15.50;;;9.80;;
35797;SDS011;21918;49.940;7.774;2023-07-02T09:24:13;16.02;;;10.23;;
35797;SDS011;21918;49.940;7.774;2023-07-02T09:26:44;14.25;;;9.57;;
35797;SDS011;21918;49.940;7.774;2023-07-02T09:29:11;17.50;;;10.05;;
35797;SDS011;21918;49.940;7.774;2023-07-02T09:31:46;16.42;;;10.13;;
35797;SDS011;21918;49.940;7.774;2023-07-02T09:34:12;17.15;;;10.88;;
35797;SDS011;21918;49.940;7.774;2023-07-02T09:36:54;15.45;;;9.60;;
35797;SDS011;21918;49.940;7.774;2023-07-02T09:39:24;16.13;;;10.15;;
35797;SDS011;21918;49.940;7.774;2023-07-02T09:41:55;14.85;;;10.02;;
35797;SDS011;21918;49.940;7.774;2023-07-02T09:44:33;15.07;;;9.80;;
35797;SDS011;21918;49.940;7.774;2023-07-02T09:47:15;14.43;;;9.00;;
35797;SDS011;21918;49.940;7.774;2023-07-02T09:49:56;15.35;;;9.73;;
35797;SDS011;21918;49.940;7.774;2023-07-02T09:52:30;17.63;;;10.27;;
35797;SDS011;21918;49.940;7.774;2023-07-02T09:54:59;15.30;;;10.82;;
35797;SDS011;21918;49.940;7.774;2023-07-02T09:57:32;17.25;;;9.88;;
35797;SDS011;21918;49.940;7.774;2023-07-02T09:59:58;15.65;;;10.02;;
35797;SDS011;21918;49.940;7.774;2023-07-02T10:02:28;20.38;;;11.32;;
35797;SDS011;21918;49.940;7.774;2023-07-02T10:04:58;20.45;;;11.82;;
35797;SDS011;21918;49.940;7.774;2023-07-02T10:07:32;18.88;;;11.82;;
35797;SDS011;21918;49.940;7.774;2023-07-02T10:10:04;19.67;;;11.52;;
35797;SDS011;21918;49.940;7.774;2023-07-02T10:12:45;20.15;;;12.98;;
35797;SDS011;21918;49.940;7.774;2023-07-02T10:15:12;18.48;;;12.52;;
35797;SDS011;21918;49.940;7.774;2023-07-02T10:17:58;19.92;;;12.15;;
35797;SDS011;21918;49.940;7.774;2023-07-02T10:20:32;20.38;;;13.55;;
35797;SDS011;21918;49.940;7.774;2023-07-02T10:23:02;20.67;;;13.75;;
35797;SDS011;21918;49.940;7.774;2023-07-02T10:25:33;23.02;;;13.20;;
35797;SDS011;21918;49.940;7.774;2023-07-02T10:28:13;18.90;;;12.30;;
35797;SDS011;21918;49.940;7.774;2023-07-02T10:30:41;15.88;;;11.55;;
35797;SDS011;21918;49.940;7.774;2023-07-02T10:33:15;22.15;;;12.90;;
35797;SDS011;21918;49.940;7.774;2023-07-02T10:35:43;24.63;;;12.85;;
35797;SDS011;21918;49.940;7.774;2023-07-02T10:38:17;25.60;;;12.57;;
35797;SDS011;21918;49.940;7.774;2023-07-02T10:40:53;22.77;;;13.00;;
35797;SDS011;21918;49.940;7.774;2023-07-02T10:43:31;24.40;;;11.77;;
35797;SDS011;21918;49.940;7.774;2023-07-02T10:46:29;19.35;;;11.93;;
35797;SDS011;21918;49.940;7.774;2023-07-02T10:49:05;16.40;;;11.02;;
35797;SDS011;21918;49.940;7.774;2023-07-02T10:51:35;15.90;;;11.23;;
35797;SDS011;21918;49.940;7.774;2023-07-02T10:54:02;22.40;;;10.45;;
35797;SDS011;21918;49.940;7.774;2023-07-02T10:56:32;16.08;;;10.02;;
35797;SDS011;21918;49.940;7.774;2023-07-02T10:59:02;15.55;;;10.05;;
35797;SDS011;21918;49.940;7.774;2023-07-02T11:01:33;15.68;;;9.80;;
35797;SDS011;21918;49.940;7.774;2023-07-02T11:04:11;14.07;;;10.35;;
35797;SDS011;21918;49.940;7.774;2023-07-02T11:06:43;14.60;;;10.02;;
35797;SDS011;21918;49.940;7.774;2023-07-02T11:09:18;16.90;;;9.90;;
35797;SDS011;21918;49.940;7.774;2023-07-02T11:12:02;13.57;;;9.73;;
35797;SDS011;21918;49.940;7.774;2023-07-02T11:14:35;17.45;;;11.02;;
35797;SDS011;21918;49.940;7.774;2023-07-02T11:17:08;14.13;;;10.05;;
35797;SDS011;21918;49.940;7.774;2023-07-02T11:19:41;19.00;;;10.45;;
35797;SDS011;21918;49.940;7.774;2023-07-02T11:22:13;17.40;;;10.88;;
35797;SDS011;21918;49.940;7.774;2023-07-02T11:24:41;15.68;;;10.30;;
35797;SDS011;21918;49.940;7.774;2023-07-02T11:27:20;15.48;;;10.32;;
35797;SDS011;21918;49.940;7.774;2023-07-02T11:30:04;14.98;;;11.32;;
35797;SDS011;21918;49.940;7.774;2023-07-02T11:33:16;14.73;;;9.65;;
35797;SDS011;21918;49.940;7.774;2023-07-02T11:35:57;15.32;;;10.15;;
35797;SDS011;21918;49.940;7.774;2023-07-02T11:38:36;17.40;;;10.80;;
35797;SDS011;21918;49.940;7.774;2023-07-02T11:41:18;18.02;;;11.43;;
35797;SDS011;21918;49.940;7.774;2023-07-02T11:43:54;15.02;;;10.63;;
35797;SDS011;21918;49.940;7.774;2023-07-02T11:46:31;14.90;;;9.20;;
35797;SDS011;21918;49.940;7.774;2023-07-02T11:51:52;20.63;;;11.85;;
35797;SDS011;21918;49.940;7.774;2023-07-02T11:54:38;15.18;;;10.02;;
35797;SDS011;21918;49.940;7.774;2023-07-02T11:57:11;18.58;;;10.68;;
35797;SDS011;21918;49.940;7.774;2023-07-02T11:59:46;15.23;;;10.38;;
35797;SDS011;21918;49.940;7.774;2023-07-02T12:02:31;15.77;;;10.68;;
35797;SDS011;21918;49.940;7.774;2023-07-02T12:05:04;16.33;;;11.75;;
35797;SDS011;21918;49.940;7.774;2023-07-02T12:07:40;19.27;;;11.98;;
35797;SDS011;21918;49.940;7.774;2023-07-02T12:10:13;16.85;;;10.68;;
35797;SDS011;21918;49.940;7.774;2023-07-02T12:12:46;15.75;;;10.90;;
35797;SDS011;21918;49.940;7.774;2023-07-02T12:15:26;16.00;;;11.43;;
35797;SDS011;21918;49.940;7.774;2023-07-02T12:17:53;20.45;;;11.23;;
35797;SDS011;21918;49.940;7.774;2023-07-02T12:20:23;13.20;;;10.50;;
35797;SDS011;21918;49.940;7.774;2023-07-02T12:22:52;17.70;;;11.15;;
35797;SDS011;21918;49.940;7.774;2023-07-02T12:25:21;17.02;;;10.23;;
35797;SDS011;21918;49.940;7.774;2023-07-02T12:27:48;17.35;;;10.63;;
35797;SDS011;21918;49.940;7.774;2023-07-02T12:30:27;16.75;;;11.23;;
35797;SDS011;21918;49.940;7.774;2023-07-02T12:33:12;16.90;;;11.18;;
35797;SDS011;21918;49.940;7.774;2023-07-02T12:35:51;16.17;;;10.80;;
35797;SDS011;21918;49.940;7.774;2023-07-02T12:38:22;18.27;;;10.88;;
35797;SDS011;21918;49.940;7.774;2023-07-02T12:40:52;19.70;;;10.85;;
35797;SDS011;21918;49.940;7.774;2023-07-02T12:43:19;16.33;;;10.02;;
35797;SDS011;21918;49.940;7.774;2023-07-02T12:45:51;15.75;;;11.07;;
35797;SDS011;21918;49.940;7.774;2023-07-02T12:48:18;20.48;;;11.85;;
35797;SDS011;21918;49.940;7.774;2023-07-02T12:50:54;17.85;;;12.18;;
35797;SDS011;21918;49.940;7.774;2023-07-02T12:53:32;19.67;;;10.98;;
35797;SDS011;21918;49.940;7.774;2023-07-02T12:56:04;19.58;;;11.73;;
35797;SDS011;21918;49.940;7.774;2023-07-02T12:58:49;18.35;;;11.90;;
35797;SDS011;21918;49.940;7.774;2023-07-02T13:01:21;16.35;;;11.27;;
35797;SDS011;21918;49.940;7.774;2023-07-02T13:04:03;18.98;;;12.55;;
35797;SDS011;21918;49.940;7.774;2023-07-02T13:06:34;18.02;;;11.88;;
35797;SDS011;21918;49.940;7.774;2023-07-02T13:09:16;16.88;;;12.10;;
35797;SDS011;21918;49.940;7.774;2023-07-02T13:11:52;18.33;;;11.98;;
35797;SDS011;21918;49.940;7.774;2023-07-02T13:14:23;18.30;;;11.90;;
35797;SDS011;21918;49.940;7.774;2023-07-02T13:16:58;19.40;;;12.30;;
35797;SDS011;21918;49.940;7.774;2023-07-02T13:19:28;21.00;;;12.30;;
35797;SDS011;21918;49.940;7.774;2023-07-02T13:21:59;15.05;;;10.77;;
35797;SDS011;21918;49.940;7.774;2023-07-02T13:24:32;17.42;;;11.75;;
35797;SDS011;21918;49.940;7.774;2023-07-02T13:27:02;19.55;;;11.27;;
35797;SDS011;21918;49.940;7.774;2023-07-02T13:29:52;16.88;;;11.30;;
35797;SDS011;21918;49.940;7.774;2023-07-02T13:32:32;19.58;;;11.93;;
35797;SDS011;21918;49.940;7.774;2023-07-02T13:35:02;18.23;;;11.48;;
35797;SDS011;21918;49.940;7.774;2023-07-02T13:37:42;17.48;;;11.48;;
35797;SDS011;21918;49.940;7.774;2023-07-02T13:40:14;22.75;;;13.20;;
35797;SDS011;21918;49.940;7.774;2023-07-02T13:42:41;20.42;;;12.48;;
35797;SDS011;21918;49.940;7.774;2023-07-02T13:45:25;15.55;;;11.82;;
35797;SDS011;21918;49.940;7.774;2023-07-02T13:47:53;19.05;;;11.65;;
35797;SDS011;21918;49.940;7.774;2023-07-02T13:50:45;17.50;;;11.85;;
35797;SDS011;21918;49.940;7.774;2023-07-02T13:53:33;20.33;;;12.77;;
35797;SDS011;21918;49.940;7.774;2023-07-02T13:56:05;24.83;;;13.23;;
35797;SDS011;21918;49.940;7.774;2023-07-02T14:01:23;15.98;;;11.68;;
35797;SDS011;21918;49.940;7.774;2023-07-02T14:04:12;20.60;;;11.60;;
35797;SDS011;21918;49.940;7.774;2023-07-02T14:06:43;15.32;;;11.05;;
35797;SDS011;21918;49.940;7.774;2023-07-02T14:09:14;17.73;;;10.80;;
35797;SDS011;21918;49.940;7.774;2023-07-02T14:12:12;21.05;;;11.60;;
35797;SDS011;21918;49.940;7.774;2023-07-02T14:14:39;18.23;;;11.40;;
35797;SDS011;21918;49.940;7.774;2023-07-02T14:17:15;15.98;;;12.18;;
35797;SDS011;21918;49.940;7.774;2023-07-02T14:19:46;15.90;;;12.13;;
35797;SDS011;21918;49.940;7.774;2023-07-02T14:22:14;18.30;;;10.25;;
35797;SDS011;21918;49.940;7.774;2023-07-02T14:24:51;17.63;;;11.77;;
35797;SDS011;21918;49.940;7.774;2023-07-02T14:27:23;16.67;;;12.00;;
35797;SDS011;21918;49.940;7.774;2023-07-02T14:30:02;16.67;;;11.13;;
35797;SDS011;21918;49.940;7.774;2023-07-02T17:34:35;14.98;;;9.75;;
35797;SDS011;21918;49.940;7.774;2023-07-02T17:37:04;12.38;;;8.98;;
35797;SDS011;21918;49.940;7.774;2023-07-02T17:39:33;15.25;;;9.93;;
35797;SDS011;21918;49.940;7.774;2023-07-02T17:42:01;16.70;;;10.27;;
35797;SDS011;21918;49.940;7.774;2023-07-02T17:44:33;14.63;;;10.52;;
35797;SDS011;21918;49.940;7.774;2023-07-02T17:47:05;16.50;;;10.57;;
35797;SDS011;21918;49.940;7.774;2023-07-02T17:49:35;12.88;;;9.48;;
35797;SDS011;21918;49.940;7.774;2023-07-02T17:52:03;13.98;;;9.45;;
35797;SDS011;21918;49.940;7.774;2023-07-02T17:54:32;18.02;;;10.63;;
35797;SDS011;21918;49.940;7.774;2023-07-02T17:57:02;16.38;;;10.23;;
35797;SDS011;21918;49.940;7.774;2023-07-02T17:59:31;15.07;;;8.50;;
35797;SDS011;21918;49.940;7.774;2023-07-02T18:01:58;14.68;;;10.02;;